createdAt,value
2019-02-12T00:01:15.847Z,4.60
2019-02-12T00:04:04.813Z,3.70
2019-02-12T00:06:52.974Z,3.67
2019-02-12T00:09:40.830Z,4.93
2019-02-12T00:12:29.486Z,3.90
2019-02-12T00:15:17.614Z,3.20
2019-02-12T00:18:06.203Z,3.83
2019-02-12T00:20:54.438Z,3.90
2019-02-12T00:23:42.457Z,3.40
2019-02-12T00:26:30.798Z,4.13
2019-02-12T00:29:18.834Z,4.03
2019-02-12T00:32:07.129Z,4.40
2019-02-12T00:34:55.164Z,3.77
2019-02-12T00:37:43.504Z,4.70
2019-02-12T00:40:31.543Z,4.30
2019-02-12T00:43:20.073Z,5.27
2019-02-12T00:46:07.779Z,4.40
2019-02-12T00:48:56.352Z,3.10
2019-02-12T00:51:44.857Z,3.53
2019-02-12T00:54:33.019Z,3.20
2019-02-12T00:57:21.059Z,5.10
2019-02-12T01:00:11.327Z,5.00
2019-02-12T01:02:59.291Z,5.27
2019-02-12T01:05:47.554Z,4.47
2019-02-12T01:08:36.211Z,4.40
2019-02-12T01:11:24.229Z,3.60
2019-02-12T01:14:12.827Z,5.10
2019-02-12T01:17:00.841Z,4.90
2019-02-12T01:19:48.823Z,4.60
2019-02-12T01:22:37.156Z,4.40
2019-02-12T01:25:24.817Z,5.10
2019-02-12T01:28:13.110Z,4.90
2019-02-12T01:31:01.923Z,4.60
2019-02-12T01:33:50.394Z,5.67
2019-02-12T01:36:38.903Z,4.43
2019-02-12T01:39:26.867Z,4.53
2019-02-12T01:42:15.557Z,4.13
2019-02-12T01:45:04.118Z,5.07
2019-02-12T01:47:52.259Z,6.40
2019-02-12T01:50:40.425Z,4.93
2019-02-12T01:53:28.665Z,5.00
2019-02-12T01:56:16.294Z,5.63
2019-02-12T01:59:04.295Z,4.30
2019-02-12T02:01:52.654Z,6.03
2019-02-12T02:04:40.436Z,5.20
2019-02-12T02:07:28.815Z,4.97
2019-02-12T02:10:17.987Z,4.30
2019-02-12T02:13:05.843Z,5.67
2019-02-12T02:15:54.350Z,4.33
2019-02-12T02:18:42.362Z,4.57
2019-02-12T02:21:29.931Z,4.80
2019-02-12T02:24:18.152Z,4.60
2019-02-12T02:27:06.323Z,4.73
2019-02-12T02:29:54.516Z,4.40
2019-02-12T02:32:42.974Z,4.17
2019-02-12T02:35:31.029Z,4.17
2019-02-12T02:38:19.564Z,4.43
2019-02-12T02:41:07.091Z,4.03
2019-02-12T02:43:55.309Z,5.07
2019-02-12T02:46:43.633Z,4.37
2019-02-12T02:49:31.787Z,5.50
2019-02-12T02:52:19.994Z,4.73
2019-02-12T02:55:08.487Z,4.30
2019-02-12T02:57:56.687Z,4.67
2019-02-12T03:00:45.207Z,4.77
2019-02-12T03:03:33.105Z,4.47
2019-02-12T03:06:20.985Z,4.90
2019-02-12T03:09:08.965Z,6.83
2019-02-12T03:11:57.440Z,5.03
2019-02-12T03:14:46.253Z,5.50
2019-02-12T03:17:34.719Z,5.60
2019-02-12T03:20:22.770Z,5.90
2019-02-12T03:23:10.956Z,5.93
2019-02-12T03:25:58.587Z,5.90
2019-02-12T03:28:46.337Z,6.03
2019-02-12T03:31:34.489Z,5.40
2019-02-12T03:34:22.990Z,6.23
2019-02-12T03:37:11.175Z,6.17
2019-02-12T03:39:59.399Z,6.97
2019-02-12T03:42:47.825Z,6.57
2019-02-12T03:45:35.947Z,5.93
2019-02-12T03:48:24.283Z,6.73
2019-02-12T03:51:12.142Z,7.83
2019-02-12T03:54:00.427Z,7.30
2019-02-12T03:56:47.899Z,8.43
2019-02-12T03:59:36.202Z,7.90
2019-02-12T04:02:24.730Z,7.47
2019-02-12T04:05:13.175Z,7.90
2019-02-12T04:08:01.215Z,7.60
2019-02-12T04:10:49.492Z,10.27
2019-02-12T04:13:37.987Z,9.90
2019-02-12T04:16:25.521Z,9.93
2019-02-12T04:19:14.139Z,9.10
2019-02-12T04:22:02.013Z,8.10
2019-02-12T04:24:50.223Z,9.57
2019-02-12T04:27:38.423Z,8.13
2019-02-12T04:30:26.375Z,9.70
2019-02-12T04:33:13.990Z,10.10
2019-02-12T04:36:02.436Z,9.30
2019-02-12T04:38:50.994Z,9.60
2019-02-12T04:41:39.212Z,8.50
2019-02-12T04:44:27.279Z,8.00
2019-02-12T04:47:15.636Z,8.97
2019-02-12T04:50:03.867Z,9.07
2019-02-12T04:52:52.067Z,9.33
2019-02-12T04:55:39.539Z,9.43
2019-02-12T04:58:27.766Z,9.63
2019-02-12T05:01:16.118Z,10.87
2019-02-12T05:04:04.143Z,9.60
2019-02-12T05:06:51.669Z,9.70
2019-02-12T05:09:42.091Z,10.03
2019-02-12T05:12:30.318Z,9.90
2019-02-12T05:15:18.611Z,11.13
2019-02-12T05:18:06.525Z,10.30
2019-02-12T05:20:54.835Z,10.17
2019-02-12T05:23:42.614Z,9.47
2019-02-12T05:26:30.799Z,11.03
2019-02-12T05:29:19.003Z,9.80
2019-02-12T05:32:07.080Z,9.83
2019-02-12T05:34:55.901Z,9.50
2019-02-12T05:37:44.590Z,9.93
2019-02-12T05:40:32.591Z,11.17
2019-02-12T05:43:21.020Z,11.43
2019-02-12T05:46:09.023Z,11.03
2019-02-12T05:48:57.275Z,12.03
2019-02-12T05:51:45.570Z,10.23
2019-02-12T05:54:33.480Z,11.47
2019-02-12T05:57:27.266Z,10.47
2019-02-12T06:00:16.994Z,11.43
2019-02-12T06:03:05.467Z,11.20
2019-02-12T06:05:54.010Z,11.33
2019-02-12T06:08:42.579Z,12.33
2019-02-12T06:11:30.370Z,12.10
2019-02-12T06:14:18.630Z,10.73
2019-02-12T06:17:06.607Z,11.53
2019-02-12T06:19:54.491Z,12.13
2019-02-12T06:22:42.755Z,13.07
2019-02-12T06:25:30.728Z,11.90
2019-02-12T06:28:18.783Z,11.47
2019-02-12T06:31:07.714Z,11.73
2019-02-12T06:33:55.630Z,11.90
2019-02-12T06:36:43.559Z,11.30
2019-02-12T06:39:31.590Z,10.77
2019-02-12T06:42:19.468Z,12.33
2019-02-12T06:45:08.479Z,12.73
2019-02-12T06:47:56.958Z,11.93
2019-02-12T06:50:44.571Z,12.47
2019-02-12T06:53:33.075Z,12.33
2019-02-12T06:56:21.334Z,11.37
2019-02-12T06:59:09.990Z,11.50
2019-02-12T07:02:33.840Z,12.03
2019-02-12T07:05:21.839Z,11.93
2019-02-12T07:08:37.480Z,11.67
2019-02-12T07:11:49.576Z,10.93
2019-02-12T07:14:59.165Z,12.10
2019-02-12T07:18:01.905Z,12.97
2019-02-12T07:21:46.192Z,12.70
2019-02-12T07:24:58.723Z,12.33
2019-02-12T07:28:15.810Z,12.73
2019-02-12T07:31:28.328Z,13.43
2019-02-12T07:34:56.604Z,16.27
2019-02-12T07:38:06.204Z,14.50
2019-02-12T07:41:23.214Z,13.90
2019-02-12T07:44:26.127Z,12.97
2019-02-12T07:48:02.384Z,16.17
2019-02-12T07:51:17.851Z,15.07
2019-02-12T07:54:32.087Z,11.67
2019-02-12T07:57:49.759Z,12.80
2019-02-12T08:00:58.731Z,10.80
2019-02-12T08:04:25.399Z,12.03
2019-02-12T08:07:40.831Z,10.80
2019-02-12T08:11:01.822Z,11.33
2019-02-12T08:14:02.547Z,10.67
2019-02-12T08:17:01.721Z,11.40
2019-02-12T08:20:13.085Z,10.40
2019-02-12T08:23:41.191Z,9.97
2019-02-12T08:27:20.032Z,11.90
2019-02-12T08:30:36.395Z,10.90
2019-02-12T08:34:08.810Z,10.17
2019-02-12T08:37:37.436Z,9.97
2019-02-12T08:41:11.642Z,9.37
2019-02-12T08:44:30.238Z,10.00
2019-02-12T08:47:47.527Z,9.10
2019-02-12T08:51:11.622Z,7.80
2019-02-12T08:54:34.675Z,10.50
2019-02-12T08:57:57.384Z,8.67
2019-02-12T09:01:20.169Z,8.40
2019-02-12T09:04:57.482Z,10.20
2019-02-12T09:08:15.530Z,10.20
2019-02-12T09:11:29.859Z,8.50
2019-02-12T09:14:41.903Z,9.90
2019-02-12T09:18:00.960Z,9.67
2019-02-12T09:21:17.697Z,9.73
2019-02-12T09:24:39.527Z,9.40
2019-02-12T09:28:02.419Z,10.60
2019-02-12T09:31:16.592Z,9.87
2019-02-12T09:34:45.452Z,9.63
2019-02-12T09:38:23.750Z,10.53
2019-02-12T09:41:40.691Z,11.47
2019-02-12T09:45:12.178Z,10.83
2019-02-12T09:48:14.863Z,8.70
2019-02-12T09:51:44.701Z,10.73
2019-02-12T09:55:08.116Z,15.00
2019-02-12T09:58:26.295Z,12.60
2019-02-12T10:01:40.095Z,13.03
2019-02-12T10:05:09.603Z,17.83
2019-02-12T10:08:28.983Z,15.87
2019-02-12T10:11:44.235Z,13.63
2019-02-12T10:15:03.019Z,11.37
2019-02-12T10:18:10.309Z,9.97
2019-02-12T10:21:29.587Z,10.47
2019-02-12T10:24:48.463Z,11.17
2019-02-12T10:27:58.547Z,10.47
2019-02-12T10:31:09.762Z,10.20
2019-02-12T10:33:57.767Z,11.07
2019-02-12T10:36:45.738Z,13.07
2019-02-12T10:39:34.133Z,11.87
2019-02-12T10:42:21.663Z,13.80
2019-02-12T10:45:10.142Z,13.37
2019-02-12T10:47:57.727Z,14.97
2019-02-12T10:50:46.214Z,11.53
2019-02-12T10:53:34.343Z,13.67
2019-02-12T10:56:21.859Z,15.20
2019-02-12T10:59:10.338Z,12.70
2019-02-12T11:01:58.099Z,13.90
2019-02-12T11:04:46.707Z,12.30
2019-02-12T11:07:34.985Z,11.30
2019-02-12T11:10:23.236Z,10.37
2019-02-12T11:13:11.251Z,9.83
2019-02-12T11:15:59.559Z,9.20
2019-02-12T11:18:48.248Z,9.10
2019-02-12T11:21:36.711Z,9.67
2019-02-12T11:24:24.820Z,10.97
2019-02-12T11:27:13.803Z,9.00
2019-02-12T11:30:02.176Z,9.30
2019-02-12T11:32:50.566Z,8.30
2019-02-12T11:35:38.722Z,7.40
2019-02-12T11:38:27.292Z,8.87
2019-02-12T11:41:16.462Z,8.50
2019-02-12T11:44:04.422Z,6.73
2019-02-12T11:46:51.957Z,8.70
2019-02-12T11:49:40.527Z,6.17
2019-02-12T11:52:28.575Z,7.20
2019-02-12T11:55:17.118Z,8.47
2019-02-12T11:58:04.700Z,9.05
2019-02-12T12:00:57.022Z,8.00
2019-02-12T12:03:45.693Z,7.90
2019-02-12T12:06:34.106Z,9.30
2019-02-12T12:09:22.657Z,10.53
2019-02-12T12:12:10.475Z,9.80
2019-02-12T12:14:58.050Z,9.00
2019-02-12T12:17:46.491Z,9.37
2019-02-12T12:20:35.110Z,8.57
2019-02-12T12:23:22.699Z,9.03
2019-02-12T12:26:11.163Z,8.57
2019-02-12T12:28:59.374Z,7.20
2019-02-12T12:31:47.789Z,7.23
2019-02-12T12:34:35.297Z,6.93
2019-02-12T12:37:23.796Z,7.80
2019-02-12T12:40:12.591Z,7.27
2019-02-12T12:43:01.131Z,6.87
2019-02-12T12:45:49.187Z,6.60
2019-02-12T12:48:37.759Z,7.50
2019-02-12T12:51:26.261Z,7.60
2019-02-12T12:54:14.491Z,7.80
2019-02-12T12:57:02.630Z,7.40
2019-02-12T12:59:50.847Z,7.57
2019-02-12T13:02:38.394Z,7.90
2019-02-12T13:05:26.468Z,7.73
2019-02-12T13:08:14.804Z,7.50
2019-02-12T13:11:03.132Z,7.30
2019-02-12T13:13:50.807Z,8.30
2019-02-12T13:16:39.070Z,8.00
2019-02-12T13:19:27.400Z,8.57
2019-02-12T13:22:15.867Z,9.47
2019-02-12T13:25:08.632Z,10.83
2019-02-12T13:27:54.451Z,9.50
2019-02-12T13:30:42.895Z,10.73
2019-02-12T13:33:31.318Z,11.13
2019-02-12T13:36:19.370Z,11.57
2019-02-12T13:39:07.872Z,11.43
2019-02-12T13:41:55.422Z,12.30
2019-02-12T13:44:43.835Z,12.80
2019-02-12T13:47:31.907Z,11.43
2019-02-12T13:50:20.052Z,12.20
2019-02-12T13:53:07.935Z,11.80
2019-02-12T13:55:56.339Z,11.03
2019-02-12T13:58:44.791Z,11.40
2019-02-12T14:01:33.483Z,12.43
2019-02-12T14:04:21.548Z,11.70
2019-02-12T14:07:09.301Z,12.33
2019-02-12T14:09:56.962Z,11.73
2019-02-12T14:12:44.796Z,11.70
2019-02-12T14:15:33.528Z,12.30
2019-02-12T14:18:21.470Z,10.37
2019-02-12T14:21:09.617Z,11.83
2019-02-12T14:23:58.119Z,10.93
2019-02-12T14:26:46.336Z,10.90
2019-02-12T14:29:34.336Z,11.47
2019-02-12T14:32:22.200Z,9.40
2019-02-12T14:35:11.322Z,11.40
2019-02-12T14:37:59.819Z,9.90
2019-02-12T14:40:48.693Z,10.83
2019-02-12T14:43:36.480Z,10.47
2019-02-12T14:46:25.135Z,10.50
2019-02-12T14:49:13.390Z,10.00
2019-02-12T14:52:02.305Z,10.13
2019-02-12T14:54:50.842Z,10.60
2019-02-12T14:57:41.018Z,10.20
2019-02-12T15:00:29.251Z,10.30
2019-02-12T15:03:17.683Z,10.87
2019-02-12T15:06:05.735Z,10.00
2019-02-12T15:08:54.519Z,11.60
2019-02-12T15:11:42.578Z,10.77
2019-02-12T15:14:30.926Z,11.17
2019-02-12T15:17:18.942Z,10.23
2019-02-12T15:20:07.927Z,10.40
2019-02-12T15:22:56.187Z,9.73
2019-02-12T15:25:44.669Z,10.60
2019-02-12T15:28:32.947Z,11.20
2019-02-12T15:31:21.187Z,10.17
2019-02-12T15:34:09.361Z,10.33
2019-02-12T15:36:57.283Z,10.30
2019-02-12T15:39:44.787Z,10.83
2019-02-12T15:42:33.347Z,9.60
2019-02-12T15:45:21.328Z,9.70
2019-02-12T15:48:09.035Z,10.90
2019-02-12T15:50:57.802Z,11.47
2019-02-12T15:53:46.023Z,10.13
2019-02-12T15:56:34.753Z,10.47
2019-02-12T15:59:23.271Z,9.77
2019-02-12T16:02:12.035Z,10.30
2019-02-12T16:05:00.923Z,11.40
2019-02-12T16:07:49.619Z,10.70
2019-02-12T16:10:40.112Z,11.10
2019-02-12T16:13:27.590Z,12.80
2019-02-12T16:16:15.715Z,11.10
2019-02-12T16:19:03.240Z,11.27
2019-02-12T16:21:51.470Z,10.57
2019-02-12T16:24:39.691Z,11.50
2019-02-12T16:27:28.272Z,10.63
2019-02-12T16:30:16.796Z,10.40
2019-02-12T16:33:05.572Z,11.30
2019-02-12T16:35:53.355Z,10.33
2019-02-12T16:38:41.799Z,11.87
2019-02-12T16:41:29.947Z,12.40
2019-02-12T16:44:18.251Z,11.70
2019-02-12T16:47:06.484Z,11.20
2019-02-12T16:49:55.050Z,12.20
2019-02-12T16:52:43.156Z,11.10
2019-02-12T16:55:31.354Z,11.60
2019-02-12T16:58:19.823Z,11.57
2019-02-12T17:01:07.800Z,11.53
2019-02-12T17:03:55.412Z,12.60
2019-02-12T17:06:42.988Z,11.90
2019-02-12T17:09:31.460Z,14.97
2019-02-12T17:12:19.963Z,12.87
2019-02-12T17:15:09.066Z,14.07
2019-02-12T17:17:57.067Z,15.47
2019-02-12T17:20:45.366Z,13.10
2019-02-12T17:23:33.619Z,12.70
2019-02-12T17:26:21.982Z,14.43
2019-02-12T17:29:10.294Z,13.30
2019-02-12T17:31:58.414Z,14.20
2019-02-12T17:34:46.632Z,13.20
2019-02-12T17:37:34.902Z,12.83
2019-02-12T17:40:23.358Z,14.70
2019-02-12T17:43:11.454Z,16.43
2019-02-12T17:45:59.642Z,14.03
2019-02-12T17:48:47.155Z,14.00
2019-02-12T17:51:35.237Z,14.03
2019-02-12T17:54:24.447Z,14.03
2019-02-12T17:57:12.263Z,13.80
2019-02-12T18:00:00.620Z,13.53
2019-02-12T18:02:49.027Z,13.60
2019-02-12T18:05:37.194Z,14.57
2019-02-12T18:08:25.374Z,13.57
2019-02-12T18:11:13.582Z,13.70
2019-02-12T18:14:01.152Z,14.87
2019-02-12T18:16:49.964Z,13.93
2019-02-12T18:19:37.847Z,17.07
2019-02-12T18:22:25.747Z,17.00
2019-02-12T18:25:14.418Z,15.13
2019-02-12T18:28:02.835Z,16.90
2019-02-12T18:30:51.270Z,16.73
2019-02-12T18:33:39.655Z,17.97
2019-02-12T18:36:28.105Z,17.13
2019-02-12T18:39:16.691Z,16.50
2019-02-12T18:42:05.403Z,18.53
2019-02-12T18:44:53.351Z,18.73
2019-02-12T18:47:41.567Z,20.43
2019-02-12T18:50:29.795Z,21.37
2019-02-12T18:53:18.275Z,18.63
2019-02-12T18:56:07.119Z,18.30
2019-02-12T18:58:55.428Z,15.87
2019-02-12T19:01:43.134Z,19.77
2019-02-12T19:04:30.775Z,19.00
2019-02-12T19:07:18.900Z,16.30
2019-02-12T19:10:07.535Z,19.87
2019-02-12T19:12:55.954Z,16.07
2019-02-12T19:15:43.475Z,15.73
2019-02-12T19:18:31.621Z,16.53
2019-02-12T19:21:20.120Z,16.50
2019-02-12T19:24:08.339Z,17.73
2019-02-12T19:26:56.539Z,17.80
2019-02-12T19:29:44.820Z,18.13
2019-02-12T19:32:33.064Z,19.77
2019-02-12T19:35:21.429Z,17.63
2019-02-12T19:38:09.889Z,16.80
2019-02-12T19:40:57.789Z,21.70
2019-02-12T19:43:46.099Z,22.00
2019-02-12T19:46:34.347Z,29.83
2019-02-12T19:49:22.822Z,33.23
2019-02-12T19:52:11.432Z,17.63
2019-02-12T19:54:59.875Z,17.23
2019-02-12T19:57:48.651Z,17.57
2019-02-12T20:00:36.862Z,18.33
2019-02-12T20:03:24.779Z,19.77
2019-02-12T20:06:13.580Z,17.17
2019-02-12T20:09:01.641Z,20.20
2019-02-12T20:11:50.167Z,20.80
2019-02-12T20:14:38.230Z,18.60
2019-02-12T20:17:26.343Z,19.63
2019-02-12T20:20:14.723Z,17.60
2019-02-12T20:23:03.031Z,20.10
2019-02-12T20:25:51.246Z,17.93
2019-02-12T20:28:39.634Z,33.67
2019-02-12T20:31:27.261Z,19.30
2019-02-12T20:34:15.730Z,19.47
2019-02-12T20:37:04.175Z,17.97
2019-02-12T20:39:52.160Z,18.47
2019-02-12T20:42:40.415Z,18.10
2019-02-12T20:45:28.774Z,17.97
2019-02-12T20:48:17.229Z,18.50
2019-02-12T20:51:05.391Z,18.97
2019-02-12T20:53:53.656Z,18.27
2019-02-12T20:56:41.974Z,18.50
2019-02-12T20:59:30.180Z,20.40
2019-02-12T21:02:18.458Z,19.23
2019-02-12T21:05:07.911Z,18.07
2019-02-12T21:07:56.424Z,18.87
2019-02-12T21:10:44.963Z,19.40
2019-02-12T21:13:33.248Z,19.87
2019-02-12T21:16:21.794Z,18.97
2019-02-12T21:19:09.387Z,17.70
2019-02-12T21:21:58.027Z,19.27
2019-02-12T21:24:46.975Z,19.63
2019-02-12T21:27:34.693Z,18.60
2019-02-12T21:30:23.504Z,20.60
2019-02-12T21:33:11.573Z,20.00
2019-02-12T21:35:59.603Z,22.00
2019-02-12T21:38:48.346Z,20.00
2019-02-12T21:41:36.363Z,20.53
2019-02-12T21:44:24.364Z,20.80
2019-02-12T21:47:12.978Z,20.20
2019-02-12T21:50:02.725Z,22.30
2019-02-12T21:52:50.827Z,21.80
2019-02-12T21:55:39.243Z,21.77
2019-02-12T21:58:28.986Z,22.67
2019-02-12T22:01:17.374Z,22.10
2019-02-12T22:04:05.920Z,20.03
2019-02-12T22:06:54.107Z,20.33
2019-02-12T22:09:42.320Z,22.37
2019-02-12T22:12:30.844Z,22.80
2019-02-12T22:15:19.252Z,22.00
2019-02-12T22:18:07.287Z,22.10
2019-02-12T22:20:55.279Z,22.80
2019-02-12T22:23:43.354Z,21.53
2019-02-12T22:26:31.435Z,22.10
2019-02-12T22:29:19.687Z,22.40
2019-02-12T22:32:07.434Z,20.53
2019-02-12T22:34:55.729Z,23.00
2019-02-12T22:37:43.883Z,22.03
2019-02-12T22:40:32.129Z,22.50
2019-02-12T22:43:20.275Z,23.20
2019-02-12T22:46:08.779Z,22.57
2019-02-12T22:48:56.914Z,20.93
2019-02-12T22:51:45.058Z,22.73
2019-02-12T22:54:33.542Z,21.40
2019-02-12T22:57:21.771Z,23.20
2019-02-12T23:00:51.448Z,22.77
2019-02-12T23:03:39.206Z,23.43
2019-02-12T23:06:27.281Z,21.90
2019-02-12T23:09:17.351Z,24.00
2019-02-12T23:12:05.850Z,23.60
2019-02-12T23:14:54.095Z,22.07
2019-02-12T23:17:42.186Z,24.37
2019-02-12T23:20:30.182Z,22.57
2019-02-12T23:23:18.834Z,24.30
2019-02-12T23:26:06.800Z,24.17
2019-02-12T23:28:55.071Z,23.97
2019-02-12T23:31:43.179Z,23.23
2019-02-12T23:34:31.719Z,23.40
2019-02-12T23:37:19.891Z,22.67
2019-02-12T23:40:08.654Z,24.83
2019-02-12T23:42:56.945Z,25.37
2019-02-12T23:45:45.031Z,22.63
2019-02-12T23:48:33.566Z,22.30
2019-02-12T23:51:22.166Z,23.27
2019-02-12T23:54:09.903Z,22.43
2019-02-12T23:56:58.231Z,22.63
2019-02-12T23:59:46.318Z,23.60
